Time;durP1;ratioP1;P1;durP2;ratioP2;P2;SDS_P1;SDS_P2;PMS_P1;PMS_P2;Temp;Humidity;BMP_temperature;BMP_pressure;BME280_temperature;BME280_humidity;BME280_pressure;Samples;Min_cycle;Max_cycle;Signal;HPM_P1;HPM_P2
2023/08/25 00:00:09;;;;;;;5.70;3.57;;;;;;;;;;5048687;28;20020;-46
2023/08/25 00:02:35;;;;;;;6.20;3.20;;;;;;;;;;5053819;28;20024;-46
2023/08/25 00:05:01;;;;;;;11.15;4.00;;;;;;;;;;5054143;28;20036;-46
2023/08/25 00:07:26;;;;;;;3.63;2.07;;;;;;;;;;5051263;28;20111;-46
2023/08/25 00:09:51;;;;;;;7.53;3.90;;;;;;;;;;5042996;28;20274;-46
2023/08/25 00:12:16;;;;;;;8.70;3.90;;;;;;;;;;5054458;28;20810;-46
2023/08/25 00:14:42;;;;;;;9.83;4.90;;;;;;;;;;5052214;28;20286;-47
2023/08/25 00:17:08;;;;;;;9.65;4.25;;;;;;;;;;5052331;28;21769;-46
2023/08/25 00:19:33;;;;;;;11.13;4.63;;;;;;;;;;5052827;28;20036;-46
2023/08/25 00:21:58;;;;;;;21.20;7.78;;;;;;;;;;5048056;28;20033;-46
2023/08/25 00:24:24;;;;;;;9.07;3.80;;;;;;;;;;5042931;28;20429;-47
2023/08/25 00:26:49;;;;;;;10.33;5.13;;;;;;;;;;5048654;28;20283;-46
2023/08/25 00:29:14;;;;;;;8.57;5.53;;;;;;;;;;5048767;28;20310;-47
2023/08/25 00:31:39;;;;;;;10.20;4.53;;;;;;;;;;5050646;28;20043;-46
2023/08/25 00:34:05;;;;;;;8.10;4.37;;;;;;;;;;5051712;28;20094;-46
2023/08/25 00:36:30;;;;;;;9.93;4.72;;;;;;;;;;5053378;28;20292;-46
2023/08/25 00:38:56;;;;;;;10.97;4.63;;;;;;;;;;5051767;28;20537;-46
2023/08/25 00:41:21;;;;;;;7.25;4.68;;;;;;;;;;5049014;28;20274;-46
2023/08/25 00:43:46;;;;;;;8.18;4.55;;;;;;;;;;5047354;28;20033;-46
2023/08/25 00:46:12;;;;;;;22.67;5.77;;;;;;;;;;5054835;28;20036;-46
2023/08/25 00:48:38;;;;;;;8.32;4.18;;;;;;;;;;5048905;28;20099;-46
2023/08/25 00:51:04;;;;;;;9.82;4.47;;;;;;;;;;5050195;28;20033;-46
2023/08/25 00:53:31;;;;;;;103.30;33.85;;;;;;;;;;5050165;28;20397;-46
2023/08/25 00:55:56;;;;;;;9.52;5.20;;;;;;;;;;5048490;28;20031;-46
2023/08/25 00:58:21;;;;;;;8.75;4.60;;;;;;;;;;5049338;28;20028;-46
2023/08/25 01:00:47;;;;;;;69.27;27.33;;;;;;;;;;5050564;28;20025;-46
2023/08/25 01:03:12;;;;;;;9.32;5.30;;;;;;;;;;5051598;28;20029;-46
2023/08/25 01:05:39;;;;;;;10.47;4.93;;;;;;;;;;5052778;28;20052;-46
2023/08/25 01:08:05;;;;;;;9.85;4.40;;;;;;;;;;5053930;28;20747;-46
2023/08/25 01:10:43;;;;;;;5.88;4.45;;;;;;;;;;5055308;28;20592;-46
2023/08/25 01:13:19;;;;;;;6.38;4.68;;;;;;;;;;5047485;28;20440;-46
2023/08/25 01:15:46;;;;;;;8.63;5.60;;;;;;;;;;5051715;28;20154;-46
2023/08/25 01:18:15;;;;;;;7.20;4.78;;;;;;;;;;5050165;28;20020;-46
2023/08/25 01:20:41;;;;;;;7.03;4.75;;;;;;;;;;5049038;28;20028;-46
2023/08/25 01:23:25;;;;;;;11.73;5.45;;;;;;;;;;5034319;28;20048;-46
2023/08/25 01:25:51;;;;;;;6.53;5.18;;;;;;;;;;5045729;28;20051;-46
2023/08/25 01:28:18;;;;;;;9.38;5.93;;;;;;;;;;5049364;28;20143;-46
2023/08/25 01:30:44;;;;;;;7.28;5.57;;;;;;;;;;5052361;28;20254;-46
2023/08/25 01:33:10;;;;;;;5.78;4.60;;;;;;;;;;5051009;28;20482;-46
2023/08/25 01:35:46;;;;;;;9.38;5.10;;;;;;;;;;5049336;28;20016;-46
2023/08/25 01:38:18;;;;;;;6.70;4.70;;;;;;;;;;5051972;28;20035;-46
2023/08/25 01:40:52;;;;;;;10.88;5.07;;;;;;;;;;5051634;28;20491;-46
2023/08/25 01:43:19;;;;;;;8.80;5.60;;;;;;;;;;5053229;28;20092;-47
2023/08/25 01:45:45;;;;;;;10.93;6.30;;;;;;;;;;5049528;28;20733;-46
2023/08/25 01:48:12;;;;;;;8.02;6.70;;;;;;;;;;5053685;28;20115;-47
2023/08/25 01:50:38;;;;;;;8.52;5.53;;;;;;;;;;5051265;28;20036;-46
2023/08/25 01:53:03;;;;;;;9.05;5.60;;;;;;;;;;5054727;28;20147;-46
2023/08/25 01:55:29;;;;;;;8.25;4.88;;;;;;;;;;5053693;28;20755;-47
2023/08/25 01:57:54;;;;;;;6.25;5.20;;;;;;;;;;5054481;28;20032;-46
2023/08/25 02:00:19;;;;;;;8.10;4.97;;;;;;;;;;5051323;28;20426;-46
2023/08/25 02:02:45;;;;;;;10.48;5.80;;;;;;;;;;5057040;28;20036;-47
2023/08/25 02:05:10;;;;;;;5.38;3.22;;;;;;;;;;5054476;28;20047;-47
2023/08/25 02:07:35;;;;;;;9.83;5.20;;;;;;;;;;5053166;28;20486;-47
2023/08/25 02:10:01;;;;;;;7.33;3.77;;;;;;;;;;5052669;28;20107;-46
2023/08/25 02:12:26;;;;;;;9.87;5.20;;;;;;;;;;5052275;28;22627;-46
2023/08/25 02:14:51;;;;;;;7.50;5.50;;;;;;;;;;5050019;28;20032;-47
2023/08/25 02:17:16;;;;;;;10.50;5.67;;;;;;;;;;5050729;28;20029;-46
2023/08/25 02:19:42;;;;;;;8.93;5.63;;;;;;;;;;5055727;28;20427;-47
2023/08/25 02:22:07;;;;;;;3.83;3.03;;;;;;;;;;5050194;28;20294;-46
2023/08/25 02:24:32;;;;;;;8.83;5.80;;;;;;;;;;5053709;28;20426;-46
2023/08/25 02:26:57;;;;;;;8.85;5.65;;;;;;;;;;5050207;28;20289;-46
2023/08/25 02:29:24;;;;;;;10.80;5.87;;;;;;;;;;5056164;28;20082;-46
2023/08/25 02:31:49;;;;;;;9.50;5.53;;;;;;;;;;5044715;28;20398;-47
2023/08/25 02:34:14;;;;;;;10.17;6.37;;;;;;;;;;5050961;28;20039;-46
2023/08/25 02:36:40;;;;;;;8.00;5.50;;;;;;;;;;5049355;28;20085;-46
2023/08/25 02:39:05;;;;;;;7.17;5.63;;;;;;;;;;5052284;28;20031;-46
2023/08/25 02:41:30;;;;;;;9.27;5.83;;;;;;;;;;5052565;28;20398;-46
2023/08/25 02:43:55;;;;;;;9.57;6.03;;;;;;;;;;5057878;28;20024;-46
2023/08/25 02:46:21;;;;;;;7.73;5.73;;;;;;;;;;5051750;28;20036;-46
2023/08/25 02:48:46;;;;;;;8.37;5.93;;;;;;;;;;5056998;28;20274;-46
2023/08/25 02:51:11;;;;;;;8.43;5.63;;;;;;;;;;5054217;28;20285;-46
2023/08/25 02:53:36;;;;;;;8.97;5.67;;;;;;;;;;5051530;28;20286;-46
2023/08/25 02:56:02;;;;;;;9.13;6.03;;;;;;;;;;5050121;28;20032;-46
2023/08/25 02:58:28;;;;;;;10.68;7.18;;;;;;;;;;5056262;28;20329;-46
2023/08/25 03:00:53;;;;;;;10.37;6.60;;;;;;;;;;5055054;28;20032;-46
2023/08/25 03:03:18;;;;;;;11.00;6.90;;;;;;;;;;5051468;28;20024;-46
2023/08/25 03:05:43;;;;;;;11.03;6.00;;;;;;;;;;5056729;28;20401;-46
2023/08/25 03:08:12;;;;;;;13.15;6.47;;;;;;;;;;5051757;28;20641;-46
2023/08/25 03:10:38;;;;;;;7.65;5.60;;;;;;;;;;5052088;28;20039;-46
2023/08/25 03:13:03;;;;;;;7.53;5.47;;;;;;;;;;5054590;28;20032;-46
2023/08/25 03:15:29;;;;;;;11.67;7.10;;;;;;;;;;5055609;28;20483;-46
2023/08/25 03:17:55;;;;;;;9.55;7.20;;;;;;;;;;5055990;28;20031;-46
2023/08/25 03:20:20;;;;;;;10.07;7.22;;;;;;;;;;5054995;28;20029;-46
2023/08/25 03:22:45;;;;;;;13.40;6.90;;;;;;;;;;5051416;28;20067;-46
2023/08/25 03:25:11;;;;;;;9.87;7.63;;;;;;;;;;5055194;28;20487;-46
2023/08/25 03:27:36;;;;;;;43.93;28.50;;;;;;;;;;5052191;28;20032;-46
2023/08/25 03:30:02;;;;;;;18.08;10.15;;;;;;;;;;5052353;28;21216;-46
2023/08/25 03:32:28;;;;;;;12.30;8.50;;;;;;;;;;5051655;28;20118;-46
2023/08/25 03:34:53;;;;;;;13.88;7.65;;;;;;;;;;5055089;28;20045;-46
2023/08/25 03:37:18;;;;;;;7.40;4.53;;;;;;;;;;5051249;28;20142;-46
2023/08/25 03:39:44;;;;;;;10.02;6.82;;;;;;;;;;5035174;28;20773;-46
2023/08/25 03:42:09;;;;;;;9.50;6.23;;;;;;;;;;5052373;28;20028;-46
2023/08/25 03:44:34;;;;;;;11.93;6.47;;;;;;;;;;5059833;28;20577;-46
2023/08/25 03:46:59;;;;;;;11.37;7.63;;;;;;;;;;5053150;28;20028;-46
2023/08/25 03:49:28;;;;;;;8.70;6.83;;;;;;;;;;5054396;28;20024;-46
2023/08/25 03:51:53;;;;;;;59.80;37.35;;;;;;;;;;5054337;28;20497;-46
2023/08/25 03:54:18;;;;;;;15.98;9.68;;;;;;;;;;5054114;28;20036;-46
2023/08/25 03:56:44;;;;;;;14.73;7.80;;;;;;;;;;5038406;28;20032;-46
2023/08/25 03:59:09;;;;;;;11.27;7.13;;;;;;;;;;5045835;28;20346;-46
2023/08/25 04:01:34;;;;;;;10.80;6.67;;;;;;;;;;5050515;28;20297;-46
2023/08/25 04:04:01;;;;;;;13.38;7.07;;;;;;;;;;5057431;28;20021;-46
2023/08/25 04:06:26;;;;;;;9.65;6.68;;;;;;;;;;5052043;28;20391;-46
2023/08/25 04:08:51;;;;;;;12.03;7.80;;;;;;;;;;5051147;28;20523;-46
2023/08/25 04:11:17;;;;;;;12.80;7.67;;;;;;;;;;5052484;28;20379;-46
2023/08/25 04:13:42;;;;;;;16.35;7.57;;;;;;;;;;5052274;28;20032;-46
2023/08/25 04:16:07;;;;;;;14.40;7.47;;;;;;;;;;5050650;28;20067;-46
2023/08/25 04:18:32;;;;;;;9.93;7.50;;;;;;;;;;5050037;28;21124;-46
2023/08/25 04:20:58;;;;;;;13.20;7.43;;;;;;;;;;5036405;28;20283;-46
2023/08/25 04:23:25;;;;;;;11.20;6.83;;;;;;;;;;5049569;28;20032;-46
2023/08/25 04:25:51;;;;;;;11.15;7.10;;;;;;;;;;5052583;28;20040;-46
2023/08/25 04:28:16;;;;;;;9.60;6.90;;;;;;;;;;5049266;28;20029;-46
2023/08/25 04:30:41;;;;;;;11.73;6.70;;;;;;;;;;5047144;28;20293;-46
2023/08/25 04:33:06;;;;;;;10.87;7.13;;;;;;;;;;5049812;28;20036;-46
2023/08/25 04:35:32;;;;;;;9.60;6.77;;;;;;;;;;5047542;28;20149;-46
2023/08/25 04:37:57;;;;;;;9.77;7.77;;;;;;;;;;5048473;28;20302;-46
2023/08/25 04:40:22;;;;;;;13.60;7.43;;;;;;;;;;5049909;28;20752;-46
2023/08/25 04:42:48;;;;;;;10.00;7.03;;;;;;;;;;5053745;28;20024;-46
2023/08/25 04:45:14;;;;;;;10.20;7.30;;;;;;;;;;5051841;28;20401;-46
2023/08/25 04:47:39;;;;;;;10.40;7.57;;;;;;;;;;5049716;28;20044;-46
2023/08/25 04:50:07;;;;;;;10.40;6.93;;;;;;;;;;5051222;28;20063;-46
2023/08/25 04:52:34;;;;;;;10.73;7.82;;;;;;;;;;5047739;28;20029;-46
2023/08/25 04:54:59;;;;;;;11.52;7.70;;;;;;;;;;5053728;28;20023;-46
2023/08/25 04:57:24;;;;;;;13.55;7.75;;;;;;;;;;5050739;28;20017;-46
2023/08/25 04:59:50;;;;;;;8.75;6.97;;;;;;;;;;5054795;28;20066;-46
2023/08/25 05:02:17;;;;;;;13.40;7.10;;;;;;;;;;5045770;28;20028;-46
2023/08/25 05:04:42;;;;;;;11.43;7.68;;;;;;;;;;5051598;28;20040;-46
2023/08/25 05:07:08;;;;;;;11.55;7.78;;;;;;;;;;5049532;28;20032;-46
2023/08/25 05:09:33;;;;;;;18.63;9.85;;;;;;;;;;5049310;28;20568;-46
2023/08/25 05:11:58;;;;;;;13.37;8.37;;;;;;;;;;5050403;28;20021;-46
2023/08/25 05:14:23;;;;;;;12.97;7.83;;;;;;;;;;5048921;28;20271;-46
2023/08/25 05:16:49;;;;;;;11.87;7.67;;;;;;;;;;5038857;28;20028;-46
2023/08/25 05:19:14;;;;;;;9.07;7.30;;;;;;;;;;5046145;28;20039;-46
2023/08/25 05:21:40;;;;;;;12.03;8.50;;;;;;;;;;5048890;28;20317;-46
2023/08/25 05:24:16;;;;;;;9.32;7.50;;;;;;;;;;5045411;28;24488;-46
2023/08/25 05:26:41;;;;;;;10.02;8.18;;;;;;;;;;5048704;28;20036;-46
2023/08/25 05:29:06;;;;;;;11.87;8.30;;;;;;;;;;5046391;28;20040;-46
2023/08/25 05:31:31;;;;;;;12.25;7.75;;;;;;;;;;5051375;28;20059;-46
2023/08/25 05:33:57;;;;;;;14.00;8.20;;;;;;;;;;5048810;28;20043;-46
2023/08/25 05:36:22;;;;;;;12.07;8.03;;;;;;;;;;5044479;28;20375;-46
2023/08/25 05:38:47;;;;;;;12.10;7.20;;;;;;;;;;5043561;28;20037;-46
2023/08/25 05:41:12;;;;;;;7.27;4.50;;;;;;;;;;5054512;28;20021;-46
2023/08/25 05:43:38;;;;;;;9.70;6.78;;;;;;;;;;5030352;28;20115;-46
2023/08/25 05:46:03;;;;;;;12.37;6.87;;;;;;;;;;5039350;28;20028;-46
2023/08/25 05:48:28;;;;;;;10.47;8.10;;;;;;;;;;5058150;28;20035;-46
2023/08/25 05:50:53;;;;;;;9.83;7.43;;;;;;;;;;5061410;28;20466;-46
2023/08/25 05:53:19;;;;;;;12.97;7.53;;;;;;;;;;5060345;28;20063;-46
2023/08/25 05:55:44;;;;;;;12.10;7.30;;;;;;;;;;5061139;28;20287;-46
2023/08/25 05:58:11;;;;;;;12.18;8.05;;;;;;;;;;5061673;28;20029;-46
2023/08/25 06:00:36;;;;;;;156.35;83.85;;;;;;;;;;5056865;28;20025;-46
2023/08/25 06:03:03;;;;;;;11.20;7.33;;;;;;;;;;5061673;28;20021;-46
2023/08/25 06:05:29;;;;;;;12.70;7.03;;;;;;;;;;5063026;28;20293;-46
2023/08/25 06:07:54;;;;;;;16.27;8.13;;;;;;;;;;5060222;28;20391;-46
2023/08/25 06:10:19;;;;;;;9.23;7.47;;;;;;;;;;5059492;28;20033;-46
2023/08/25 06:12:44;;;;;;;16.67;7.57;;;;;;;;;;5058123;28;20075;-46
2023/08/25 06:15:10;;;;;;;11.90;7.43;;;;;;;;;;5058403;28;20369;-45
2023/08/25 06:17:35;;;;;;;10.43;6.72;;;;;;;;;;5062682;28;20270;-46
2023/08/25 06:20:03;;;;;;;8.87;7.40;;;;;;;;;;5057035;28;20119;-46
2023/08/25 06:22:28;;;;;;;10.75;7.88;;;;;;;;;;5062329;28;20328;-45
2023/08/25 06:24:53;;;;;;;10.55;7.07;;;;;;;;;;5061041;28;20020;-46
2023/08/25 06:27:19;;;;;;;9.50;7.77;;;;;;;;;;5061737;28;20013;-46
2023/08/25 06:29:44;;;;;;;8.23;6.77;;;;;;;;;;5058519;28;20040;-46
2023/08/25 06:32:09;;;;;;;9.77;7.13;;;;;;;;;;5058754;28;20271;-46
2023/08/25 06:34:34;;;;;;;12.63;7.80;;;;;;;;;;5062993;28;20031;-46
2023/08/25 06:37:00;;;;;;;11.13;7.10;;;;;;;;;;5058464;28;20497;-46
2023/08/25 06:39:25;;;;;;;9.90;7.25;;;;;;;;;;5062224;28;20274;-46
2023/08/25 06:41:50;;;;;;;9.55;7.53;;;;;;;;;;5053758;28;20033;-46
2023/08/25 06:44:16;;;;;;;10.47;6.67;;;;;;;;;;5051251;28;20040;-45
2023/08/25 06:46:41;;;;;;;9.73;7.53;;;;;;;;;;5058914;28;20513;-46
2023/08/25 06:49:07;;;;;;;13.00;7.50;;;;;;;;;;5060898;28;20161;-46
2023/08/25 06:51:32;;;;;;;10.00;7.10;;;;;;;;;;5063141;28;20028;-46
2023/08/25 06:54:01;;;;;;;15.85;6.75;;;;;;;;;;5062944;28;20048;-46
2023/08/25 06:56:26;;;;;;;10.57;7.13;;;;;;;;;;5056735;28;20041;-45
2023/08/25 06:58:51;;;;;;;12.90;6.75;;;;;;;;;;5061250;28;20029;-46
2023/08/25 07:01:18;;;;;;;9.00;6.73;;;;;;;;;;5064302;28;20435;-46
2023/08/25 07:03:43;;;;;;;10.75;7.32;;;;;;;;;;5064949;28;20274;-46
2023/08/25 07:06:08;;;;;;;10.90;7.50;;;;;;;;;;5062213;28;20036;-46
2023/08/25 07:08:36;;;;;;;9.77;6.85;;;;;;;;;;5045087;28;20035;-46
2023/08/25 07:11:01;;;;;;;9.52;7.45;;;;;;;;;;5067039;28;20031;-46
2023/08/25 07:13:26;;;;;;;8.63;7.07;;;;;;;;;;5061318;28;20048;-46
2023/08/25 07:15:51;;;;;;;8.63;6.87;;;;;;;;;;5057644;28;20337;-46
2023/08/25 07:18:17;;;;;;;8.97;6.43;;;;;;;;;;5058357;28;20329;-46
2023/08/25 07:20:42;;;;;;;9.57;6.73;;;;;;;;;;5063887;28;20051;-46
2023/08/25 07:23:07;;;;;;;11.93;8.03;;;;;;;;;;5062098;28;20029;-46
2023/08/25 07:25:32;;;;;;;7.43;6.63;;;;;;;;;;5054824;28;20094;-46
2023/08/25 07:27:58;;;;;;;18.13;9.33;;;;;;;;;;5061671;28;20553;-45
2023/08/25 07:30:23;;;;;;;9.13;6.43;;;;;;;;;;5063736;28;20035;-46
2023/08/25 07:32:51;;;;;;;10.90;7.30;;;;;;;;;;5065280;28;20103;-46
2023/08/25 07:35:16;;;;;;;8.90;6.90;;;;;;;;;;5063130;28;20044;-46
2023/08/25 07:37:41;;;;;;;8.87;7.33;;;;;;;;;;5062915;28;20033;-46
2023/08/25 07:40:07;;;;;;;15.45;7.63;;;;;;;;;;5060626;28;20286;-46
2023/08/25 07:42:32;;;;;;;9.40;7.05;;;;;;;;;;5056312;28;20035;-46
2023/08/25 07:44:58;;;;;;;10.45;7.35;;;;;;;;;;5053327;28;20023;-46
2023/08/25 07:47:23;;;;;;;9.70;7.72;;;;;;;;;;5062010;28;20033;-46
2023/08/25 07:49:48;;;;;;;8.33;6.47;;;;;;;;;;5061158;28;20025;-46
2023/08/25 07:52:14;;;;;;;10.20;7.20;;;;;;;;;;5062796;28;20277;-46
2023/08/25 07:54:39;;;;;;;10.90;7.07;;;;;;;;;;5059708;28;20017;-45
2023/08/25 07:57:05;;;;;;;11.30;7.03;;;;;;;;;;5058542;28;20366;-46
2023/08/25 07:59:30;;;;;;;10.35;7.53;;;;;;;;;;5062577;28;20275;-46
2023/08/25 08:01:55;;;;;;;7.97;6.53;;;;;;;;;;5062942;28;20450;-46
2023/08/25 08:04:20;;;;;;;7.65;4.80;;;;;;;;;;5056725;28;20513;-46
2023/08/25 08:06:47;;;;;;;13.83;7.67;;;;;;;;;;5061197;28;20024;-46
2023/08/25 08:09:12;;;;;;;10.10;7.75;;;;;;;;;;5064472;28;20262;-46
2023/08/25 08:11:38;;;;;;;11.03;8.43;;;;;;;;;;5063596;28;20040;-46
2023/08/25 08:14:04;;;;;;;10.85;7.88;;;;;;;;;;5058998;28;20040;-46
2023/08/25 08:16:30;;;;;;;11.60;6.82;;;;;;;;;;5063733;28;20111;-46
2023/08/25 08:18:55;;;;;;;9.88;6.68;;;;;;;;;;5061326;28;20028;-46
2023/08/25 08:21:21;;;;;;;15.65;7.85;;;;;;;;;;5062173;28;20025;-46
2023/08/25 08:23:46;;;;;;;19.08;9.02;;;;;;;;;;5058707;28;20094;-46
2023/08/25 08:26:11;;;;;;;10.82;8.25;;;;;;;;;;5061359;28;20071;-46
2023/08/25 08:28:37;;;;;;;12.20;8.43;;;;;;;;;;5059566;28;20139;-46
2023/08/25 08:31:05;;;;;;;5.70;5.03;;;;;;;;;;5061107;28;20029;-46
2023/08/25 08:33:30;;;;;;;10.25;6.72;;;;;;;;;;5058731;28;20552;-46
2023/08/25 08:35:56;;;;;;;10.38;7.90;;;;;;;;;;5041638;28;20070;-46
2023/08/25 08:38:21;;;;;;;11.10;6.30;;;;;;;;;;5060454;28;20106;-46
2023/08/25 08:40:49;;;;;;;8.63;6.80;;;;;;;;;;5066356;28;20501;-46
2023/08/25 08:43:15;;;;;;;8.98;6.47;;;;;;;;;;5042501;28;20271;-46
2023/08/25 08:45:42;;;;;;;10.48;6.25;;;;;;;;;;5058519;28;20054;-46
2023/08/25 08:48:07;;;;;;;11.82;6.60;;;;;;;;;;5058672;28;20036;-46
2023/08/25 08:50:33;;;;;;;10.85;6.68;;;;;;;;;;5059995;28;20020;-46
2023/08/25 08:52:59;;;;;;;12.23;6.80;;;;;;;;;;5059676;28;20032;-46
2023/08/25 08:55:26;;;;;;;6.68;4.07;;;;;;;;;;5051435;28;20044;-46
2023/08/25 08:57:51;;;;;;;10.00;6.88;;;;;;;;;;5055229;28;20492;-46
2023/08/25 09:00:18;;;;;;;7.57;5.65;;;;;;;;;;5059674;28;20099;-46
2023/08/25 09:02:45;;;;;;;7.55;5.60;;;;;;;;;;5061405;28;20390;-45
2023/08/25 09:05:12;;;;;;;12.18;5.70;;;;;;;;;;5056255;28;20042;-46
2023/08/25 09:07:39;;;;;;;6.88;5.18;;;;;;;;;;5057111;28;20031;-46
2023/08/25 09:10:05;;;;;;;9.18;4.90;;;;;;;;;;5069920;28;20080;-46
2023/08/25 09:12:30;;;;;;;10.70;5.15;;;;;;;;;;5060186;28;20123;-46
2023/08/25 09:14:55;;;;;;;11.98;5.65;;;;;;;;;;5060088;28;20028;-46
2023/08/25 09:17:21;;;;;;;10.02;4.82;;;;;;;;;;5060979;28;20035;-46
2023/08/25 09:19:48;;;;;;;7.43;5.32;;;;;;;;;;5065792;28;20155;-47
2023/08/25 09:22:15;;;;;;;11.55;5.57;;;;;;;;;;5060794;28;20017;-46
2023/08/25 09:24:44;;;;;;;13.73;5.80;;;;;;;;;;5058170;28;20055;-46
2023/08/25 09:27:23;;;;;;;12.93;5.50;;;;;;;;;;5059724;28;20028;-46
2023/08/25 09:29:56;;;;;;;9.55;5.30;;;;;;;;;;5062618;28;20064;-46
2023/08/25 09:32:23;;;;;;;8.43;5.28;;;;;;;;;;5058498;28;20059;-46
2023/08/25 09:34:48;;;;;;;16.25;5.25;;;;;;;;;;5063244;28;20063;-46
2023/08/25 09:37:13;;;;;;;4.63;3.93;;;;;;;;;;5063940;28;20055;-46
2023/08/25 09:39:45;;;;;;;17.03;5.40;;;;;;;;;;5062656;28;20271;-46
2023/08/25 09:42:10;;;;;;;6.68;4.97;;;;;;;;;;5060667;28;20567;-46
2023/08/25 09:44:35;;;;;;;5.68;4.90;;;;;;;;;;5063804;28;20021;-46
2023/08/25 09:47:01;;;;;;;7.55;4.75;;;;;;;;;;5062382;28;20434;-46
2023/08/25 09:49:36;;;;;;;10.02;5.28;;;;;;;;;;5058303;28;20036;-46
2023/08/25 09:52:02;;;;;;;7.82;4.85;;;;;;;;;;5057084;28;20037;-46
2023/08/25 09:54:27;;;;;;;8.32;5.90;;;;;;;;;;5060859;28;20401;-45
2023/08/25 09:56:53;;;;;;;8.77;5.00;;;;;;;;;;5059805;28;20029;-46
2023/08/25 09:59:19;;;;;;;6.70;3.95;;;;;;;;;;5059476;28;20359;-46
2023/08/25 10:01:45;;;;;;;7.57;4.70;;;;;;;;;;5058780;28;20107;-46
2023/08/25 10:04:11;;;;;;;10.45;5.00;;;;;;;;;;5055931;28;20024;-46
2023/08/25 10:06:38;;;;;;;9.50;4.45;;;;;;;;;;5054857;28;20028;-45
2023/08/25 10:09:04;;;;;;;7.90;5.13;;;;;;;;;;5058798;28;20033;-46
2023/08/25 10:11:33;;;;;;;8.02;4.10;;;;;;;;;;5059534;28;20406;-46
2023/08/25 10:14:02;;;;;;;9.95;4.88;;;;;;;;;;5060345;28;20027;-46
2023/08/25 10:16:27;;;;;;;8.75;4.63;;;;;;;;;;5061576;28;20020;-46
2023/08/25 10:18:54;;;;;;;5.95;3.78;;;;;;;;;;5057171;28;20036;-46
2023/08/25 10:21:20;;;;;;;5.35;3.63;;;;;;;;;;5062026;28;20024;-46
2023/08/25 10:23:45;;;;;;;9.48;3.92;;;;;;;;;;5059796;28;20107;-46
2023/08/25 10:26:11;;;;;;;9.23;4.53;;;;;;;;;;5061085;28;20115;-46
2023/08/25 10:28:38;;;;;;;7.03;3.53;;;;;;;;;;5060106;28;20314;-46
2023/08/25 10:31:04;;;;;;;7.30;3.30;;;;;;;;;;5063325;28;20037;-46
2023/08/25 10:33:44;;;;;;;6.20;3.03;;;;;;;;;;5059882;28;20433;-46
2023/08/25 10:36:14;;;;;;;9.50;3.10;;;;;;;;;;5064828;28;20051;-46
2023/08/25 10:38:39;;;;;;;5.95;3.58;;;;;;;;;;5060158;28;20017;-46
2023/08/25 10:41:12;;;;;;;7.22;3.50;;;;;;;;;;5065603;28;20025;-46
2023/08/25 10:43:40;;;;;;;5.60;2.85;;;;;;;;;;5063237;28;20528;-46
2023/08/25 10:46:06;;;;;;;6.25;2.47;;;;;;;;;;5062457;28;20032;-46
2023/08/25 10:48:31;;;;;;;6.15;2.65;;;;;;;;;;5061508;28;20024;-46
2023/08/25 10:51:08;;;;;;;2.65;2.03;;;;;;;;;;5063602;28;20424;-46
2023/08/25 10:53:37;;;;;;;9.52;4.15;;;;;;;;;;5059478;28;20017;-46
2023/08/25 10:56:15;;;;;;;7.72;4.63;;;;;;;;;;5063566;28;20079;-46
2023/08/25 10:58:40;;;;;;;7.47;2.70;;;;;;;;;;5064630;28;20394;-46
2023/08/25 11:01:06;;;;;;;8.88;4.35;;;;;;;;;;5057617;28;20017;-45
2023/08/25 11:03:48;;;;;;;7.57;3.83;;;;;;;;;;5061696;28;20044;-46
2023/08/25 11:06:32;;;;;;;7.15;4.50;;;;;;;;;;5063691;28;20052;-46
2023/08/25 11:08:57;;;;;;;7.05;4.45;;;;;;;;;;5062111;28;20052;-46
2023/08/25 11:11:23;;;;;;;6.18;3.70;;;;;;;;;;5059535;28;20064;-46
2023/08/25 11:13:50;;;;;;;7.85;3.63;;;;;;;;;;5064104;28;20094;-46
2023/08/25 11:16:15;;;;;;;8.77;4.00;;;;;;;;;;5066809;28;20394;-46
2023/08/25 11:18:41;;;;;;;9.03;3.60;;;;;;;;;;5062171;28;20029;-46
2023/08/25 11:21:07;;;;;;;8.07;3.70;;;;;;;;;;5053629;28;20339;-46
2023/08/25 11:23:36;;;;;;;8.80;3.20;;;;;;;;;;5058753;28;20024;-46
2023/08/25 11:26:01;;;;;;;5.57;3.33;;;;;;;;;;5058205;28;20044;-46
2023/08/25 11:28:26;;;;;;;5.83;3.47;;;;;;;;;;5064735;28;20191;-46
2023/08/25 11:30:51;;;;;;;4.47;3.07;;;;;;;;;;5061845;28;20267;-46
2023/08/25 11:33:17;;;;;;;6.10;3.43;;;;;;;;;;5064627;28;20072;-46
2023/08/25 11:35:44;;;;;;;8.15;3.40;;;;;;;;;;5065965;28;20337;-46
2023/08/25 11:38:11;;;;;;;5.22;3.17;;;;;;;;;;5048452;28;20037;-46
2023/08/25 11:40:38;;;;;;;6.25;3.05;;;;;;;;;;5041735;28;20033;-46
2023/08/25 11:43:04;;;;;;;6.75;3.30;;;;;;;;;;5063382;28;20029;-46
2023/08/25 11:45:31;;;;;;;8.17;2.87;;;;;;;;;;5062897;28;20020;-46
2023/08/25 11:47:56;;;;;;;6.70;2.75;;;;;;;;;;5062612;28;20036;-46
2023/08/25 11:50:21;;;;;;;11.77;3.67;;;;;;;;;;5062023;28;20047;-46
2023/08/25 11:52:47;;;;;;;6.07;3.20;;;;;;;;;;5061741;28;20279;-46
2023/08/25 11:55:15;;;;;;;7.13;3.35;;;;;;;;;;5058932;28;20311;-46
2023/08/25 11:57:40;;;;;;;5.53;3.28;;;;;;;;;;5057055;28;20024;-46
2023/08/25 12:00:07;;;;;;;5.37;3.13;;;;;;;;;;5062666;28;20050;-46
2023/08/25 12:02:33;;;;;;;7.93;3.33;;;;;;;;;;5063279;28;20024;-46
2023/08/25 12:05:04;;;;;;;9.82;4.15;;;;;;;;;;5065204;28;20081;-46
2023/08/25 12:07:31;;;;;;;7.60;3.67;;;;;;;;;;5061369;28;20529;-46
2023/08/25 12:09:57;;;;;;;6.53;3.30;;;;;;;;;;5064566;28;20013;-46
2023/08/25 12:12:23;;;;;;;5.32;3.45;;;;;;;;;;5064243;28;20029;-46
2023/08/25 12:14:51;;;;;;;7.32;3.70;;;;;;;;;;5056310;28;20212;-46
2023/08/25 12:17:27;;;;;;;7.95;3.58;;;;;;;;;;5063211;28;20055;-46
2023/08/25 12:19:53;;;;;;;8.73;4.55;;;;;;;;;;5053610;28;20035;-46
2023/08/25 12:22:18;;;;;;;6.85;3.60;;;;;;;;;;5060359;28;20410;-46
2023/08/25 12:24:44;;;;;;;7.55;3.85;;;;;;;;;;5061871;28;20017;-46
2023/08/25 12:27:09;;;;;;;5.68;3.60;;;;;;;;;;5064365;28;20036;-45
2023/08/25 12:29:34;;;;;;;5.80;3.17;;;;;;;;;;5041342;28;20108;-46
2023/08/25 12:32:00;;;;;;;6.27;3.53;;;;;;;;;;5058690;28;20109;-46
2023/08/25 12:34:25;;;;;;;8.80;3.25;;;;;;;;;;5045173;28;20032;-46
2023/08/25 12:36:50;;;;;;;7.53;3.90;;;;;;;;;;5047881;28;20387;-46
2023/08/25 12:39:16;;;;;;;6.60;3.73;;;;;;;;;;5060951;28;20377;-46
2023/08/25 12:41:41;;;;;;;5.57;3.13;;;;;;;;;;5062033;28;20362;-45
2023/08/25 12:44:06;;;;;;;2.63;2.10;;;;;;;;;;5065581;28;20082;-46
2023/08/25 12:46:32;;;;;;;6.77;3.73;;;;;;;;;;5056324;28;20019;-46
2023/08/25 12:48:57;;;;;;;7.85;4.50;;;;;;;;;;5053467;28;20281;-46
2023/08/25 12:51:22;;;;;;;5.80;3.53;;;;;;;;;;5061509;28;20067;-46
2023/08/25 12:53:48;;;;;;;10.77;3.00;;;;;;;;;;5062274;28;20043;-47
2023/08/25 12:56:13;;;;;;;9.20;3.23;;;;;;;;;;5060189;28;20290;-46
2023/08/25 12:58:39;;;;;;;5.27;3.07;;;;;;;;;;5054920;28;20622;-46
2023/08/25 13:01:06;;;;;;;2.97;1.67;;;;;;;;;;5064109;28;20029;-46
2023/08/25 13:03:32;;;;;;;9.18;3.60;;;;;;;;;;5054774;28;20030;-46
2023/08/25 13:05:57;;;;;;;5.82;3.33;;;;;;;;;;5063350;28;20028;-46
2023/08/25 13:08:23;;;;;;;6.87;3.67;;;;;;;;;;5060308;28;20074;-46
2023/08/25 13:10:51;;;;;;;7.78;3.72;;;;;;;;;;5059627;28;20032;-46
2023/08/25 13:13:16;;;;;;;9.93;3.97;;;;;;;;;;5064143;28;20029;-46
2023/08/25 13:15:41;;;;;;;9.95;3.00;;;;;;;;;;5066609;28;20024;-46
2023/08/25 13:18:07;;;;;;;9.97;3.80;;;;;;;;;;5061313;28;20436;-46
2023/08/25 13:20:32;;;;;;;6.97;3.20;;;;;;;;;;5062279;28;20036;-46
2023/08/25 13:22:57;;;;;;;12.17;3.30;;;;;;;;;;5065511;28;20124;-46
2023/08/25 13:25:22;;;;;;;7.17;3.40;;;;;;;;;;5062846;28;20020;-46
2023/08/25 13:27:48;;;;;;;7.45;3.13;;;;;;;;;;5058475;28;20032;-47
2023/08/25 13:30:13;;;;;;;8.93;3.13;;;;;;;;;;5059961;28;20617;-46
2023/08/25 13:32:40;;;;;;;8.27;3.00;;;;;;;;;;5062910;28;20279;-46
2023/08/25 13:35:05;;;;;;;7.68;3.10;;;;;;;;;;5060510;28;20020;-46
2023/08/25 13:37:31;;;;;;;4.03;2.83;;;;;;;;;;5065216;28;20391;-46
2023/08/25 13:39:56;;;;;;;9.65;3.13;;;;;;;;;;5060361;28;20086;-46
2023/08/25 13:42:21;;;;;;;4.63;2.90;;;;;;;;;;5065665;28;20054;-47
2023/08/25 13:44:47;;;;;;;6.57;3.13;;;;;;;;;;5062127;28;20343;-46
2023/08/25 13:47:12;;;;;;;10.40;3.57;;;;;;;;;;5064379;28;20032;-47
2023/08/25 13:49:38;;;;;;;10.23;3.28;;;;;;;;;;5065892;28;20029;-46
2023/08/25 13:52:03;;;;;;;9.65;4.07;;;;;;;;;;5071151;28;20033;-46
2023/08/25 13:54:29;;;;;;;6.97;4.20;;;;;;;;;;5062349;28;20052;-46
2023/08/25 13:56:54;;;;;;;7.43;4.27;;;;;;;;;;5062716;28;20397;-46
2023/08/25 13:59:20;;;;;;;10.50;4.00;;;;;;;;;;5066002;28;20649;-46
2023/08/25 14:01:45;;;;;;;7.78;4.38;;;;;;;;;;5065656;28;20078;-46
2023/08/25 14:04:10;;;;;;;11.00;4.23;;;;;;;;;;5067627;28;20029;-46
2023/08/25 14:06:36;;;;;;;23.45;7.68;;;;;;;;;;5065497;28;20286;-46
2023/08/25 14:09:01;;;;;;;7.13;4.13;;;;;;;;;;5061836;28;20024;-46
2023/08/25 14:11:26;;;;;;;11.63;4.83;;;;;;;;;;5065761;28;20279;-46
2023/08/25 14:13:51;;;;;;;8.97;5.50;;;;;;;;;;5062651;28;20040;-46
2023/08/25 14:16:17;;;;;;;10.13;5.03;;;;;;;;;;5063850;28;20028;-46
2023/08/25 14:18:42;;;;;;;10.17;5.10;;;;;;;;;;5064550;28;20282;-46
2023/08/25 14:21:07;;;;;;;7.57;4.67;;;;;;;;;;5064358;28;20031;-46
2023/08/25 14:23:33;;;;;;;6.83;5.30;;;;;;;;;;5065333;28;20032;-46
2023/08/25 14:25:58;;;;;;;8.65;4.60;;;;;;;;;;5061539;28;20173;-46
2023/08/25 14:28:24;;;;;;;8.10;5.22;;;;;;;;;;5063425;28;20458;-46
2023/08/25 14:30:49;;;;;;;9.53;5.07;;;;;;;;;;5062472;28;20443;-46